Celebrity Equinox — 9HXD9 — position and weather

sailwx.info

Track history (hours):
 
Tides and Currents Weather Stations Pressure Air Temp Water Temp Dewpoint Dewpoint Depression Visibility Wind Speed Wind Dir Waves Ship Positions

Celebrity Equinox

Last reported at 2016-May-29 16:33 UTC. Time now 2016-May-29 17:23 UTC.
Position N 38°19' E 015°07'.

Length 316 m; draft 8.6 m.

Type: Passenger vessel. MMSI: 249667000.

Date/timePositionNaut miles runAvg speedWind from/ knotsBaromVisibWave heightAir tempDewpointWater temp
2016-May-29 16:33N 38°19' E 015°07'1919.0
2016-May-29 15:33N 38°22' E 015°31'10 9.7
2016-May-29 14:33N 38°14' E 015°37'4 3.7
2016-May-29 13:32N 38°12' E 015°33'0 0.0
2016-May-29 12:31N 38°12' E 015°33'0 0.0
2016-May-29 11:31N 38°12' E 015°33'0 0.0
2016-May-29 10:33N 38°12' E 015°33'0 0.0
2016-May-29 09:33N 38°12' E 015°33'0 0.0
2016-May-29 08:33N 38°12' E 015°33'0 0.0
2016-May-29 07:32N 38°12' E 015°33'0 0.0
2016-May-29 06:32N 38°12' E 015°33'0 0.0
2016-May-29 05:31N 38°12' E 015°33'0 0.1
2016-May-29 04:34N 38°12' E 015°34'5 4.9
2016-May-29 03:33N 38°07' E 015°36'7 7.4
2016-May-29 02:33N 37°60' E 015°36'1010.0
2016-May-29 01:33N 37°53' E 015°44'1110.6
2016-May-29 00:28N 37°49' E 015°58'7111.1
2016-May-28 18:04N 37°29' E 017°24'610.9
2016-May-28 17:33N 37°28' E 017°31'1111.1
2016-May-28 16:33N 37°25' E 017°45'2411.2
2016-May-28 14:24N 37°18' E 018°14'  
2016-May-24 17:33N 37°08' E 024°56'1111.4
2016-May-24 16:33N 37°18' E 025°03'1111.4
2016-May-24 15:33N 37°27' E 025°11'7 6.7
2016-May-24 14:32N 37°28' E 025°19'0 0.0
2016-May-24 13:31N 37°28' E 025°19'0 0.0
2016-May-24 12:31N 37°28' E 025°19'0 0.0
2016-May-24 11:34N 37°28' E 025°19'0 0.0
2016-May-24 10:33N 37°28' E 025°19'0 0.0
2016-May-24 09:33N 37°28' E 025°19'0 0.0
2016-May-24 08:32N 37°28' E 025°19'0 0.0
2016-May-24 07:32N 37°28' E 025°19'0 0.0
2016-May-24 06:31N 37°28' E 025°19'0 0.0
2016-May-24 05:31N 37°28' E 025°19'0 0.0
2016-May-24 04:30N 37°28' E 025°19'0 0.0
2016-May-24 03:34N 37°28' E 025°19'5 4.8
2016-May-24 02:33N 37°29' E 025°13'10 9.9
2016-May-24 01:33N 37°32' E 025°01'9 9.1
2016-May-24 00:33N 37°32' E 024°50'25 7.8
2016-May-23 21:22N 37°29' E 024°19'6 6.9
2016-May-23 20:33N 37°27' E 024°12'8 7.3
2016-May-23 19:24N 37°32' E 024°03'8 8.9
2016-May-23 18:33N 37°35' E 023°55'9 9.0
2016-May-23 17:33N 37°39' E 023°44'9 9.0
2016-May-23 16:33N 37°47' E 023°39'9 9.0
2016-May-23 15:33N 37°56' E 023°37'1 1.2
2016-May-23 14:32N 37°56' E 023°38'0 0.0
2016-May-23 13:31N 37°56' E 023°38'0 0.0
2016-May-23 12:31N 37°56' E 023°38'0 0.0
2016-May-23 11:33N 37°56' E 023°38'0 0.0
2016-May-23 10:33N 37°56' E 023°38'0 0.0
2016-May-23 09:33N 37°56' E 023°38'0 0.0
2016-May-23 08:32N 37°56' E 023°38'0 0.0
2016-May-23 07:32N 37°56' E 023°38'0 0.0
2016-May-23 06:32N 37°56' E 023°38'0 0.0
2016-May-23 05:32N 37°56' E 023°38'0 0.0
2016-May-23 04:32N 37°56' E 023°38'0 0.0
2016-May-23 03:31N 37°56' E 023°38'0 0.0
2016-May-23 02:31N 37°56' E 023°38'0 0.0
2016-May-23 01:33N 37°56' E 023°38'0 0.0
2016-May-23 00:33N 37°56' E 023°38'0 0.0
2016-May-22 23:32N 37°56' E 023°38'0 0.0
2016-May-22 22:32N 37°56' E 023°38'0 0.0
2016-May-22 21:32N 37°56' E 023°38'0 0.0
2016-May-22 20:31N 37°56' E 023°38'0 0.0
2016-May-22 19:31N 37°56' E 023°38'0 0.0
2016-May-22 18:33N 37°56' E 023°38'0 0.0
2016-May-22 17:33N 37°56' E 023°38'0 0.0
2016-May-22 16:32N 37°56' E 023°38'0 0.0
2016-May-22 15:32N 37°56' E 023°38'0 0.0
2016-May-22 14:31N 37°56' E 023°38'0 0.0
2016-May-22 13:31N 37°56' E 023°38'0 0.0
2016-May-22 12:31N 37°56' E 023°38'0 0.0
2016-May-22 11:33N 37°56' E 023°38'0 0.0
2016-May-22 10:33N 37°56' E 023°38'0 0.0
2016-May-22 09:32N 37°56' E 023°38'0 0.0
2016-May-22 08:32N 37°56' E 023°38'0 0.0
2016-May-22 07:31N 37°56' E 023°38'0 0.0
2016-May-22 06:31N 37°56' E 023°38'0 0.0
2016-May-22 05:31N 37°56' E 023°38'0 0.0
2016-May-22 04:33N 37°56' E 023°38'0 0.0
2016-May-22 03:33N 37°56' E 023°38'0 0.0
2016-May-22 02:33N 37°56' E 023°38'1 1.2
2016-May-22 01:33N 37°55' E 023°37'1717.0
2016-May-22 00:33N 37°40' E 023°45'1918.7
2016-May-21 23:32N 37°21' E 023°45'37717.6
2016-May-21 02:07N 37°49' E 015°51'1120.1
2016-May-21 01:33N 37°55' E 015°38'1919.2
2016-May-21 00:33N 38°14' E 015°36'1716.5
2016-May-20 23:33N 38°30' E 015°35'2121.0
2016-May-20 22:33N 38°49' E 015°25'  
Track history (hours):
 
Tides and Currents Weather Stations Pressure Air Temp Water Temp Dewpoint Dewpoint Depression Visibility Wind Speed Wind Dir Waves Ship Positions

Celebrity Equinox

Last reported at 2016-May-29 16:33 UTC. Time now 2016-May-29 17:23 UTC.
Position N 38°19' E 015°07'.

Length 316 m; draft 8.6 m.

Type: Passenger vessel. MMSI: 249667000.

Date/timePositionNaut miles runAvg speedWind from/ knotsBaromVisibWave heightAir tempDewpointWater temp
2016-May-29 16:33N 38°19' E 015°07'1919.0
2016-May-29 15:33N 38°22' E 015°31'10 9.7
2016-May-29 14:33N 38°14' E 015°37'4 3.7
2016-May-29 13:32N 38°12' E 015°33'0 0.0
2016-May-29 12:31N 38°12' E 015°33'0 0.0
2016-May-29 11:31N 38°12' E 015°33'0 0.0
2016-May-29 10:33N 38°12' E 015°33'0 0.0
2016-May-29 09:33N 38°12' E 015°33'0 0.0
2016-May-29 08:33N 38°12' E 015°33'0 0.0
2016-May-29 07:32N 38°12' E 015°33'0 0.0
2016-May-29 06:32N 38°12' E 015°33'0 0.0
2016-May-29 05:31N 38°12' E 015°33'0 0.1
2016-May-29 04:34N 38°12' E 015°34'5 4.9
2016-May-29 03:33N 38°07' E 015°36'7 7.4
2016-May-29 02:33N 37°60' E 015°36'1010.0
2016-May-29 01:33N 37°53' E 015°44'1110.6
2016-May-29 00:28N 37°49' E 015°58'7111.1
2016-May-28 18:04N 37°29' E 017°24'610.9
2016-May-28 17:33N 37°28' E 017°31'1111.1
2016-May-28 16:33N 37°25' E 017°45'2411.2
2016-May-28 14:24N 37°18' E 018°14'  
2016-May-24 17:33N 37°08' E 024°56'1111.4
2016-May-24 16:33N 37°18' E 025°03'1111.4
2016-May-24 15:33N 37°27' E 025°11'7 6.7
2016-May-24 14:32N 37°28' E 025°19'0 0.0
2016-May-24 13:31N 37°28' E 025°19'0 0.0
2016-May-24 12:31N 37°28' E 025°19'0 0.0
2016-May-24 11:34N 37°28' E 025°19'0 0.0
2016-May-24 10:33N 37°28' E 025°19'0 0.0
2016-May-24 09:33N 37°28' E 025°19'0 0.0
2016-May-24 08:32N 37°28' E 025°19'0 0.0
2016-May-24 07:32N 37°28' E 025°19'0 0.0
2016-May-24 06:31N 37°28' E 025°19'0 0.0
2016-May-24 05:31N 37°28' E 025°19'0 0.0
2016-May-24 04:30N 37°28' E 025°19'0 0.0
2016-May-24 03:34N 37°28' E 025°19'5 4.8
2016-May-24 02:33N 37°29' E 025°13'10 9.9
2016-May-24 01:33N 37°32' E 025°01'9 9.1
2016-May-24 00:33N 37°32' E 024°50'25 7.8
2016-May-23 21:22N 37°29' E 024°19'6 6.9
2016-May-23 20:33N 37°27' E 024°12'8 7.3
2016-May-23 19:24N 37°32' E 024°03'8 8.9
2016-May-23 18:33N 37°35' E 023°55'9 9.0
2016-May-23 17:33N 37°39' E 023°44'9 9.0
2016-May-23 16:33N 37°47' E 023°39'9 9.0
2016-May-23 15:33N 37°56' E 023°37'1 1.2
2016-May-23 14:32N 37°56' E 023°38'0 0.0
2016-May-23 13:31N 37°56' E 023°38'0 0.0
2016-May-23 12:31N 37°56' E 023°38'0 0.0
2016-May-23 11:33N 37°56' E 023°38'0 0.0
2016-May-23 10:33N 37°56' E 023°38'0 0.0
2016-May-23 09:33N 37°56' E 023°38'0 0.0
2016-May-23 08:32N 37°56' E 023°38'0 0.0
2016-May-23 07:32N 37°56' E 023°38'0 0.0
2016-May-23 06:32N 37°56' E 023°38'0 0.0
2016-May-23 05:32N 37°56' E 023°38'0 0.0
2016-May-23 04:32N 37°56' E 023°38'0 0.0
2016-May-23 03:31N 37°56' E 023°38'0 0.0
2016-May-23 02:31N 37°56' E 023°38'0 0.0
2016-May-23 01:33N 37°56' E 023°38'0 0.0
2016-May-23 00:33N 37°56' E 023°38'0 0.0
2016-May-22 23:32N 37°56' E 023°38'0 0.0
2016-May-22 22:32N 37°56' E 023°38'0 0.0
2016-May-22 21:32N 37°56' E 023°38'0 0.0
2016-May-22 20:31N 37°56' E 023°38'0 0.0
2016-May-22 19:31N 37°56' E 023°38'0 0.0
2016-May-22 18:33N 37°56' E 023°38'0 0.0
2016-May-22 17:33N 37°56' E 023°38'0 0.0
2016-May-22 16:32N 37°56' E 023°38'0 0.0
2016-May-22 15:32N 37°56' E 023°38'0 0.0
2016-May-22 14:31N 37°56' E 023°38'0 0.0
2016-May-22 13:31N 37°56' E 023°38'0 0.0
2016-May-22 12:31N 37°56' E 023°38'0 0.0
2016-May-22 11:33N 37°56' E 023°38'0 0.0
2016-May-22 10:33N 37°56' E 023°38'0 0.0
2016-May-22 09:32N 37°56' E 023°38'0 0.0
2016-May-22 08:32N 37°56' E 023°38'0 0.0
2016-May-22 07:31N 37°56' E 023°38'0 0.0
2016-May-22 06:31N 37°56' E 023°38'0 0.0
2016-May-22 05:31N 37°56' E 023°38'0 0.0
2016-May-22 04:33N 37°56' E 023°38'0 0.0
2016-May-22 03:33N 37°56' E 023°38'0 0.0
2016-May-22 02:33N 37°56' E 023°38'1 1.2
2016-May-22 01:33N 37°55' E 023°37'1717.0
2016-May-22 00:33N 37°40' E 023°45'1918.7
2016-May-21 23:32N 37°21' E 023°45'37717.6
2016-May-21 02:07N 37°49' E 015°51'1120.1
2016-May-21 01:33N 37°55' E 015°38'1919.2
2016-May-21 00:33N 38°14' E 015°36'1716.5
2016-May-20 23:33N 38°30' E 015°35'2121.0
2016-May-20 22:33N 38°49' E 015°25'  

Dump ship's entire track history